createdAt,value
2018-01-13T00:02:09.452Z,24.23
2018-01-13T00:05:23.231Z,23.47
2018-01-13T00:08:37.271Z,23.93
2018-01-13T00:11:50.488Z,23.13
2018-01-13T00:15:02.733Z,22.40
2018-01-13T00:18:15.297Z,21.80
2018-01-13T00:21:26.469Z,20.10
2018-01-13T00:24:36.912Z,19.83
2018-01-13T00:27:49.290Z,19.10
2018-01-13T00:30:57.348Z,21.80
2018-01-13T00:34:09.506Z,21.20
2018-01-13T00:37:20.268Z,17.83
2018-01-13T00:40:32.137Z,22.10
2018-01-13T00:43:44.294Z,18.30
2018-01-13T00:46:54.570Z,18.83
2018-01-13T00:50:07.231Z,18.20
2018-01-13T00:53:17.457Z,18.43
2018-01-13T00:56:29.559Z,22.00
2018-01-13T00:59:37.957Z,19.70
2018-01-13T01:02:52.051Z,18.10
2018-01-13T01:06:02.682Z,20.90
2018-01-13T01:09:16.908Z,22.00
2018-01-13T01:12:26.942Z,20.53
2018-01-13T01:15:38.198Z,19.90
2018-01-13T01:18:53.584Z,19.97
2018-01-13T01:22:07.538Z,19.53
2018-01-13T01:25:24.719Z,19.43
2018-01-13T01:28:37.478Z,18.87
2018-01-13T01:31:46.214Z,21.50
2018-01-13T01:34:59.259Z,23.50
2018-01-13T01:38:13.876Z,24.73
2018-01-13T01:41:27.981Z,22.13
2018-01-13T01:44:39.825Z,21.40
2018-01-13T01:47:50.487Z,22.20
2018-01-13T01:51:01.229Z,29.20
2018-01-13T01:54:11.561Z,24.50
2018-01-13T01:57:20.932Z,21.30
2018-01-13T02:00:31.986Z,22.70
2018-01-13T02:03:43.952Z,22.87
2018-01-13T02:06:53.284Z,24.67
2018-01-13T02:10:05.307Z,23.27
2018-01-13T02:13:17.778Z,20.60
2018-01-13T02:16:29.729Z,23.00
2018-01-13T02:19:41.333Z,21.57
2018-01-13T02:22:51.635Z,24.20
2018-01-13T02:26:00.980Z,23.37
2018-01-13T02:29:12.952Z,18.00
2018-01-13T02:32:23.936Z,26.50
2018-01-13T02:35:32.432Z,22.10
2018-01-13T02:38:43.847Z,22.63
2018-01-13T02:41:54.403Z,24.13
2018-01-13T02:45:06.764Z,24.70
2018-01-13T02:48:25.660Z,27.57
2018-01-13T02:51:52.156Z,26.97
2018-01-13T02:55:07.734Z,22.57
2018-01-13T02:58:19.003Z,27.50
2018-01-13T03:01:27.330Z,30.30
2018-01-13T03:04:37.018Z,29.30
2018-01-13T03:07:47.436Z,34.67
2018-01-13T03:11:00.983Z,28.00
2018-01-13T03:14:12.025Z,29.70
2018-01-13T03:17:24.026Z,35.43
2018-01-13T03:20:32.646Z,31.67
2018-01-13T03:23:45.059Z,30.07
2018-01-13T03:26:57.492Z,29.70
2018-01-13T03:30:06.517Z,32.87
2018-01-13T03:33:17.527Z,32.20
2018-01-13T03:36:27.076Z,28.40
2018-01-13T03:39:47.099Z,27.93
2018-01-13T03:42:58.884Z,30.70
2018-01-13T03:46:13.562Z,36.03
2018-01-13T03:49:30.899Z,31.40
2018-01-13T03:52:42.126Z,36.17
2018-01-13T03:55:51.266Z,33.23
2018-01-13T03:59:00.694Z,30.57
2018-01-13T04:02:11.036Z,27.10
2018-01-13T04:05:25.402Z,27.70
2018-01-13T04:08:40.447Z,27.40
2018-01-13T04:11:49.150Z,29.13
2018-01-13T04:15:00.639Z,25.57
2018-01-13T04:18:10.861Z,31.07
2018-01-13T04:21:24.775Z,31.47
2018-01-13T04:24:39.691Z,33.10
2018-01-13T04:27:51.834Z,37.70
2018-01-13T04:31:04.326Z,34.87
2018-01-13T04:34:14.326Z,32.80
2018-01-13T04:37:24.965Z,38.43
2018-01-13T04:40:36.684Z,30.97
2018-01-13T04:43:46.812Z,33.80
2018-01-13T04:46:57.208Z,36.87
2018-01-13T04:50:07.116Z,33.33
2018-01-13T04:53:17.633Z,38.27
2018-01-13T04:56:28.124Z,40.43
2018-01-13T04:59:40.539Z,38.63
2018-01-13T05:02:48.724Z,44.73
2018-01-13T05:05:57.931Z,41.23
2018-01-13T05:09:07.791Z,42.07
2018-01-13T05:12:20.615Z,31.37
2018-01-13T05:15:30.134Z,38.37
2018-01-13T05:18:40.178Z,40.30
2018-01-13T05:21:52.993Z,35.97
2018-01-13T05:25:04.082Z,40.97
2018-01-13T05:28:14.429Z,44.40
2018-01-13T05:31:26.712Z,46.03
2018-01-13T05:34:35.724Z,44.03
2018-01-13T05:37:46.448Z,41.60
2018-01-13T05:40:57.179Z,48.53
2018-01-13T05:44:23.340Z,49.37
2018-01-13T05:47:34.150Z,53.40
2018-01-13T05:50:44.678Z,52.43
2018-01-13T05:53:54.499Z,52.57
2018-01-13T05:57:04.342Z,55.80
2018-01-13T06:00:14.579Z,56.67
2018-01-13T06:03:25.090Z,58.73
2018-01-13T06:06:34.797Z,63.90
2018-01-13T06:09:44.821Z,54.17
2018-01-13T06:13:02.780Z,53.00
2018-01-13T06:16:13.274Z,58.50
2018-01-13T06:19:26.563Z,57.30
2018-01-13T06:22:36.782Z,59.67
2018-01-13T06:29:20.356Z,63.67
2018-01-13T06:32:30.472Z,53.90
2018-01-13T06:35:40.605Z,60.37
2018-01-13T06:39:08.779Z,61.80
2018-01-13T06:42:20.425Z,58.97
2018-01-13T06:45:36.016Z,58.47
2018-01-13T06:48:47.991Z,65.87
2018-01-13T06:51:57.112Z,65.87
2018-01-13T06:55:05.678Z,74.53
2018-01-13T06:58:16.060Z,58.90
2018-01-13T07:01:27.394Z,67.27
2018-01-13T07:04:37.985Z,68.77
2018-01-13T07:07:55.431Z,68.00
2018-01-13T07:11:06.228Z,64.03
2018-01-13T07:14:16.306Z,67.07
2018-01-13T07:17:25.109Z,54.10
2018-01-13T07:20:36.141Z,60.73
2018-01-13T07:23:45.577Z,60.20
2018-01-13T07:26:55.462Z,63.00
2018-01-13T07:30:07.746Z,60.03
2018-01-13T07:33:17.893Z,63.67
2018-01-13T07:36:29.567Z,60.97
2018-01-13T07:39:41.185Z,55.70
2018-01-13T07:42:53.925Z,57.30
2018-01-13T07:46:05.997Z,59.73
2018-01-13T07:49:17.552Z,55.87
2018-01-13T07:52:28.807Z,65.10
2018-01-13T07:55:40.630Z,56.80
2018-01-13T07:58:50.221Z,55.60
2018-01-13T08:02:02.034Z,58.60
2018-01-13T08:05:19.840Z,56.63
2018-01-13T08:08:26.154Z,60.53
2018-01-13T08:11:37.523Z,52.77
2018-01-13T08:14:49.621Z,52.50
2018-01-13T08:17:59.121Z,55.27
2018-01-13T08:21:06.895Z,63.30
2018-01-13T08:24:18.030Z,61.43
2018-01-13T08:27:28.358Z,59.80
2018-01-13T08:30:38.831Z,61.60
2018-01-13T08:33:51.821Z,65.13
2018-01-13T08:36:59.101Z,57.33
2018-01-13T08:40:06.466Z,60.93
2018-01-13T08:43:16.535Z,55.33
2018-01-13T08:46:27.637Z,57.10
2018-01-13T08:49:36.730Z,50.33
2018-01-13T08:52:46.836Z,64.33
2018-01-13T08:55:56.278Z,61.90
2018-01-13T08:59:04.884Z,63.03
2018-01-13T09:02:16.831Z,57.00
2018-01-13T09:05:25.514Z,62.13
2018-01-13T09:08:37.390Z,60.17
2018-01-13T09:11:48.988Z,62.00
2018-01-13T09:14:56.687Z,55.27
2018-01-13T09:18:06.387Z,59.13
2018-01-13T09:21:12.481Z,61.90
2018-01-13T09:24:20.798Z,57.30
2018-01-13T09:27:32.339Z,60.40
2018-01-13T09:30:43.453Z,58.63
2018-01-13T09:33:54.920Z,58.57
2018-01-13T09:37:02.519Z,55.13
2018-01-13T09:40:16.500Z,63.80
2018-01-13T09:43:27.314Z,56.57
2018-01-13T09:46:34.737Z,57.70
2018-01-13T09:49:50.539Z,56.00
2018-01-13T09:53:06.886Z,48.67
2018-01-13T09:56:17.554Z,60.13
2018-01-13T09:59:29.085Z,58.43
2018-01-13T10:02:41.507Z,55.63
2018-01-13T10:05:50.222Z,63.00
2018-01-13T10:09:00.428Z,55.90
2018-01-13T10:12:21.639Z,60.53
2018-01-13T10:15:30.442Z,56.53
2018-01-13T10:18:38.893Z,53.67
2018-01-13T10:21:46.446Z,57.83
2018-01-13T10:24:56.999Z,53.40
2018-01-13T10:28:10.515Z,53.77
2018-01-13T10:31:19.454Z,60.10
2018-01-13T10:34:29.763Z,55.20
2018-01-13T10:37:42.407Z,58.40
2018-01-13T10:40:48.880Z,59.93
2018-01-13T10:44:00.779Z,63.47
2018-01-13T10:47:16.504Z,63.37
2018-01-13T10:50:25.626Z,63.50
2018-01-13T10:53:34.812Z,58.17
2018-01-13T10:56:48.398Z,65.13
2018-01-13T10:59:57.071Z,57.30
2018-01-13T11:03:06.624Z,58.00
2018-01-13T11:06:20.071Z,61.87
2018-01-13T11:09:27.825Z,57.90
2018-01-13T11:12:38.328Z,61.87
2018-01-13T11:15:53.500Z,60.20
2018-01-13T11:19:05.932Z,64.07
2018-01-13T11:22:13.458Z,59.90
2018-01-13T11:25:21.982Z,65.13
2018-01-13T11:28:30.664Z,63.77
2018-01-13T11:31:45.317Z,52.10
2018-01-13T11:34:58.567Z,57.07
2018-01-13T11:38:12.525Z,64.17
2018-01-13T11:41:19.622Z,57.27
2018-01-13T11:44:31.833Z,62.40
2018-01-13T11:47:38.930Z,57.60
2018-01-13T11:50:47.587Z,59.57
2018-01-13T11:53:55.191Z,63.53
2018-01-13T11:57:07.456Z,57.60
2018-01-13T12:00:22.718Z,57.47
2018-01-13T12:03:30.998Z,56.87
2018-01-13T12:06:41.037Z,53.73
2018-01-13T12:09:49.731Z,56.40
2018-01-13T12:12:57.703Z,54.97
2018-01-13T12:16:14.346Z,63.83
2018-01-13T12:19:26.937Z,62.37
2018-01-13T12:22:41.149Z,57.33
2018-01-13T12:25:53.146Z,58.13
2018-01-13T12:29:03.565Z,55.30
2018-01-13T12:32:14.121Z,66.10
2018-01-13T12:35:22.241Z,61.60
2018-01-13T12:38:31.017Z,59.20
2018-01-13T12:41:39.891Z,60.73
2018-01-13T12:44:48.585Z,58.67
2018-01-13T12:47:58.870Z,55.47
2018-01-13T12:51:07.593Z,59.53
2018-01-13T12:54:19.257Z,58.73
2018-01-13T12:57:25.420Z,57.27
2018-01-13T13:00:36.657Z,57.00
2018-01-13T13:03:43.600Z,54.80
2018-01-13T13:07:09.219Z,46.90
2018-01-13T13:10:34.849Z,50.60
2018-01-13T13:13:42.653Z,56.87
2018-01-13T13:16:54.388Z,57.43
2018-01-13T13:20:02.485Z,52.67
2018-01-13T13:23:11.481Z,51.67
2018-01-13T13:26:22.856Z,46.80
2018-01-13T13:29:31.336Z,56.03
2018-01-13T13:32:43.868Z,50.67
2018-01-13T13:35:52.289Z,51.90
2018-01-13T13:39:15.237Z,42.30
2018-01-13T13:42:27.737Z,46.37
2018-01-13T13:45:35.963Z,46.27
2018-01-13T13:48:47.839Z,43.40
2018-01-13T13:51:57.207Z,44.67
2018-01-13T13:55:05.525Z,43.03
2018-01-13T13:58:14.476Z,39.87
2018-01-13T14:01:30.946Z,44.13
2018-01-13T14:04:40.747Z,44.70
2018-01-13T14:08:06.916Z,42.57
2018-01-13T14:11:18.537Z,40.73
2018-01-13T14:14:25.267Z,40.50
2018-01-13T14:17:38.183Z,42.00
2018-01-13T14:21:01.925Z,39.40
2018-01-13T14:24:11.532Z,43.70
2018-01-13T14:27:22.162Z,38.73
2018-01-13T14:30:28.549Z,36.00
2018-01-13T14:33:39.694Z,35.10
2018-01-13T14:36:48.547Z,33.73
2018-01-13T14:39:57.189Z,39.47
2018-01-13T14:43:04.856Z,36.33
2018-01-13T14:46:14.176Z,41.77
2018-01-13T14:49:24.948Z,36.40
2018-01-13T14:52:33.787Z,29.33
2018-01-13T14:55:47.402Z,33.10
2018-01-13T14:58:53.705Z,32.83
2018-01-13T15:02:18.352Z,31.67
2018-01-13T15:05:29.768Z,30.90
2018-01-13T15:08:36.183Z,28.60
2018-01-13T15:11:47.144Z,34.60
2018-01-13T15:14:55.561Z,36.73
2018-01-13T15:18:07.938Z,42.80
2018-01-13T15:21:17.912Z,35.23
2018-01-13T15:24:26.679Z,32.47
2018-01-13T15:27:39.605Z,28.20
2018-01-13T15:30:51.456Z,27.00
2018-01-13T15:33:58.872Z,30.83
2018-01-13T15:37:08.703Z,34.67
2018-01-13T15:40:17.243Z,33.30
2018-01-13T15:43:27.294Z,36.07
2018-01-13T15:46:35.070Z,31.30
2018-01-13T15:49:43.834Z,33.47
2018-01-13T15:52:51.185Z,27.87
2018-01-13T15:55:59.493Z,29.47
2018-01-13T15:59:08.574Z,31.03
2018-01-13T16:02:23.144Z,23.17
2018-01-13T16:05:33.418Z,24.33
2018-01-13T16:08:40.626Z,28.67
2018-01-13T16:11:51.044Z,23.70
2018-01-13T16:14:59.723Z,24.00
2018-01-13T16:18:10.064Z,24.50
2018-01-13T16:21:16.177Z,24.20
2018-01-13T16:24:41.388Z,28.20
2018-01-13T16:27:48.649Z,33.73
2018-01-13T16:30:57.022Z,31.80
2018-01-13T16:34:04.920Z,28.73
2018-01-13T16:37:14.008Z,24.53
2018-01-13T16:40:29.062Z,27.30
2018-01-13T16:43:38.360Z,28.53
2018-01-13T16:46:48.935Z,27.30
2018-01-13T16:49:55.919Z,24.47
2018-01-13T16:53:06.975Z,24.17
2018-01-13T16:56:16.119Z,25.43
2018-01-13T16:59:24.450Z,23.10
2018-01-13T17:02:38.550Z,23.60
2018-01-13T17:05:48.954Z,24.90
2018-01-13T17:08:56.205Z,30.97
2018-01-13T17:12:13.821Z,28.30
2018-01-13T17:15:22.056Z,24.53
2018-01-13T17:18:29.100Z,31.23
2018-01-13T17:21:39.576Z,28.00
2018-01-13T17:24:47.868Z,55.70
2018-01-13T17:28:02.954Z,39.47
2018-01-13T17:31:12.313Z,34.43
2018-01-13T17:34:21.105Z,29.60
2018-01-13T17:37:34.584Z,34.97
2018-01-13T17:40:45.317Z,30.03
2018-01-13T17:43:59.837Z,28.67
2018-01-13T17:47:06.856Z,29.87
2018-01-13T17:50:13.616Z,28.87
2018-01-13T17:53:23.296Z,25.10
2018-01-13T17:56:32.315Z,31.10
2018-01-13T17:59:42.945Z,24.33
2018-01-13T18:02:52.341Z,22.63
2018-01-13T18:06:00.891Z,33.63
2018-01-13T18:09:20.846Z,23.13
2018-01-13T18:12:29.869Z,25.67
2018-01-13T18:15:42.370Z,22.13
2018-01-13T18:18:51.006Z,20.97
2018-01-13T18:22:00.144Z,21.47
2018-01-13T18:25:06.480Z,22.93
2018-01-13T18:28:19.626Z,22.73
2018-01-13T18:31:34.100Z,19.10
2018-01-13T18:34:41.182Z,24.10
2018-01-13T18:37:51.810Z,22.97
2018-01-13T18:41:00.036Z,22.00
2018-01-13T18:44:08.888Z,24.63
2018-01-13T18:47:17.280Z,23.50
2018-01-13T18:50:26.888Z,30.63
2018-01-13T18:53:39.220Z,19.30
2018-01-13T18:56:46.179Z,23.50
2018-01-13T19:00:01.806Z,20.60
2018-01-13T19:03:17.208Z,19.97
2018-01-13T19:06:30.213Z,17.80
2018-01-13T19:09:42.485Z,21.53
2018-01-13T19:12:59.567Z,22.07
2018-01-13T19:16:11.122Z,23.40
2018-01-13T19:19:18.142Z,19.73
2018-01-13T19:22:25.592Z,23.87
2018-01-13T19:25:34.826Z,21.50
2018-01-13T19:28:45.897Z,20.80
2018-01-13T19:31:55.877Z,22.13
2018-01-13T19:35:05.575Z,23.53
2018-01-13T19:38:15.111Z,23.73
2018-01-13T19:41:24.266Z,21.23
2018-01-13T19:44:33.334Z,22.17
2018-01-13T19:51:01.807Z,20.40
2018-01-13T19:54:10.091Z,21.70
2018-01-13T19:57:16.339Z,20.93
2018-01-13T20:00:32.107Z,22.40
2018-01-13T20:03:41.113Z,23.77
2018-01-13T20:06:47.861Z,27.33
2018-01-13T20:09:54.984Z,25.83
2018-01-13T20:13:05.455Z,24.23
2018-01-13T20:16:14.914Z,26.63
2018-01-13T20:19:27.754Z,27.30
2018-01-13T20:22:34.051Z,22.23
2018-01-13T20:25:44.016Z,24.57
2018-01-13T20:28:55.367Z,23.70
2018-01-13T20:32:01.775Z,24.80
2018-01-13T20:35:09.775Z,23.50
2018-01-13T20:38:17.869Z,20.43
2018-01-13T20:41:25.330Z,19.63
2018-01-13T20:44:35.253Z,19.13
2018-01-13T20:47:48.930Z,21.50
2018-01-13T20:50:57.792Z,18.33
2018-01-13T20:54:07.808Z,20.13
2018-01-13T20:57:14.391Z,16.60
2018-01-13T21:00:24.383Z,15.90
2018-01-13T21:03:32.552Z,17.57
2018-01-13T21:06:50.364Z,16.37
2018-01-13T21:09:58.665Z,14.23
2018-01-13T21:13:20.856Z,13.67
2018-01-13T21:16:40.928Z,12.67
2018-01-13T21:20:03.024Z,14.13
2018-01-13T21:23:23.818Z,15.43
2018-01-13T21:26:48.278Z,14.00
2018-01-13T21:30:13.850Z,14.57
2018-01-13T21:33:35.268Z,14.47
2018-01-13T21:37:03.226Z,13.77
2018-01-13T21:40:17.258Z,12.80
2018-01-13T21:43:26.244Z,14.03
2018-01-13T21:46:49.270Z,13.90
2018-01-13T21:50:18.269Z,12.57
2018-01-13T21:53:50.150Z,12.27
2018-01-13T22:01:08.378Z,14.50
2018-01-13T22:04:39.974Z,11.13
2018-01-13T22:11:37.749Z,12.03
2018-01-13T22:15:09.255Z,11.90
2018-01-13T22:26:07.273Z,12.10
2018-01-13T22:29:52.072Z,14.40
2018-01-13T22:33:21.406Z,10.37
2018-01-13T22:36:49.691Z,17.93
2018-01-13T22:43:54.756Z,12.87
2018-01-13T22:47:23.946Z,10.47
2018-01-13T22:51:12.025Z,10.93
2018-01-13T22:54:41.513Z,12.73
2018-01-13T22:58:17.014Z,11.80
2018-01-13T23:09:09.075Z,8.80
2018-01-13T23:12:52.774Z,13.23
2018-01-13T23:20:00.749Z,12.13
2018-01-13T23:23:30.907Z,9.70
2018-01-13T23:31:01.510Z,15.70
2018-01-13T23:34:28.191Z,12.03
2018-01-13T23:38:08.091Z,11.53
2018-01-13T23:41:32.959Z,11.60
2018-01-13T23:45:08.539Z,15.70
2018-01-13T23:48:42.145Z,13.13
2018-01-13T23:52:13.390Z,11.27
2018-01-13T23:55:46.124Z,12.07
2018-01-13T23:59:17.316Z,10.67
